createdAt,value
2023-06-10T00:01:25.715Z,11.21
2023-06-10T00:03:55.456Z,11.13
2023-06-10T00:06:25.426Z,11.10
2023-06-10T00:08:52.748Z,11.12
2023-06-10T00:11:19.486Z,11.10
2023-06-10T00:13:46.402Z,11.12
2023-06-10T00:16:13.119Z,11.13
2023-06-10T00:18:39.930Z,11.13
2023-06-10T00:21:06.997Z,11.07
2023-06-10T00:23:38.849Z,10.96
2023-06-10T00:26:06.222Z,10.88
2023-06-10T00:28:32.957Z,10.85
2023-06-10T00:30:59.719Z,10.87
2023-06-10T00:33:26.520Z,10.88
2023-06-10T00:35:53.545Z,10.82
2023-06-10T00:38:20.519Z,10.75
2023-06-10T00:40:47.365Z,10.73
2023-06-10T00:43:14.040Z,10.69
2023-06-10T00:45:40.968Z,10.70
2023-06-10T00:48:08.253Z,10.71
2023-06-10T00:50:35.850Z,10.72
2023-06-10T00:53:02.863Z,10.69
2023-06-10T00:55:29.568Z,10.61
2023-06-10T00:57:56.346Z,10.55
2023-06-10T01:00:23.085Z,10.48
2023-06-10T01:02:50.536Z,10.38
2023-06-10T01:05:17.413Z,10.26
2023-06-10T01:07:48.577Z,10.19
2023-06-10T01:10:29.766Z,10.09
2023-06-10T01:13:00.618Z,10.00
2023-06-10T01:15:27.590Z,9.97
2023-06-10T01:17:59.505Z,10.00
2023-06-10T01:20:30.831Z,10.01
2023-06-10T01:22:59.140Z,10.00
2023-06-10T01:25:30.731Z,10.00
2023-06-10T01:28:04.725Z,10.00
2023-06-10T01:30:41.069Z,9.90
2023-06-10T01:33:10.771Z,9.82
2023-06-10T01:35:40.376Z,9.80
2023-06-10T01:38:08.054Z,9.80
2023-06-10T01:40:35.697Z,9.71
2023-06-10T01:43:03.099Z,9.61
2023-06-10T01:45:29.819Z,9.58
2023-06-10T01:47:56.669Z,9.63
2023-06-10T01:50:23.777Z,9.70
2023-06-10T01:52:50.521Z,9.77
2023-06-10T01:55:17.409Z,9.85
2023-06-10T01:57:44.156Z,9.89
2023-06-10T02:00:11.595Z,9.86
2023-06-10T02:02:38.442Z,9.83
2023-06-10T02:05:06.602Z,9.82
2023-06-10T02:07:33.418Z,9.76
2023-06-10T02:10:00.078Z,9.71
2023-06-10T02:12:26.897Z,9.62
2023-06-10T02:14:53.685Z,9.57
2023-06-10T02:17:20.617Z,9.57
2023-06-10T02:19:53.593Z,9.62
2023-06-10T02:22:24.223Z,9.64
2023-06-10T02:24:51.130Z,9.67
2023-06-10T02:27:19.311Z,9.64
2023-06-10T02:29:46.063Z,9.58
2023-06-10T02:32:12.772Z,9.55
2023-06-10T02:34:39.489Z,9.51
2023-06-10T02:37:06.255Z,9.46
2023-06-10T02:39:32.953Z,9.43
2023-06-10T02:41:59.663Z,9.42
2023-06-10T02:44:26.418Z,9.44
2023-06-10T02:46:53.200Z,9.47
2023-06-10T02:49:19.852Z,9.52
2023-06-10T02:51:46.516Z,9.51
2023-06-10T02:54:13.184Z,9.51
2023-06-10T02:56:42.942Z,9.53
2023-06-10T02:59:09.735Z,9.53
2023-06-10T03:01:38.192Z,9.55
2023-06-10T03:04:06.538Z,9.56
2023-06-10T03:06:34.943Z,9.62
2023-06-10T03:09:01.847Z,9.62
2023-06-10T03:11:28.512Z,9.61
2023-06-10T03:13:55.498Z,9.63
2023-06-10T03:16:22.287Z,9.64
2023-06-10T03:18:50.473Z,9.64
2023-06-10T03:21:17.304Z,9.63
2023-06-10T03:23:44.175Z,9.65
2023-06-10T03:26:12.962Z,9.62
2023-06-10T03:28:39.655Z,9.63
2023-06-10T03:31:06.694Z,9.63
2023-06-10T03:33:34.023Z,9.67
2023-06-10T03:36:00.710Z,9.69
2023-06-10T03:38:27.433Z,9.73
2023-06-10T03:40:54.086Z,9.77
2023-06-10T03:43:21.361Z,9.79
2023-06-10T03:45:49.402Z,9.79
2023-06-10T03:48:16.515Z,9.79
2023-06-10T03:50:43.309Z,9.79
2023-06-10T03:53:10.034Z,9.82
2023-06-10T03:55:37.350Z,9.88
2023-06-10T03:58:04.017Z,9.92
2023-06-10T04:00:31.128Z,9.94
2023-06-10T04:02:59.399Z,9.93
2023-06-10T04:05:26.211Z,9.94
2023-06-10T04:07:52.975Z,10.01
2023-06-10T04:10:19.767Z,10.09
2023-06-10T04:12:46.533Z,10.16
2023-06-10T04:15:14.470Z,10.21
2023-06-10T04:17:41.279Z,10.27
2023-06-10T04:20:09.162Z,10.36
2023-06-10T04:22:36.158Z,10.46
2023-06-10T04:25:03.290Z,10.50
2023-06-10T04:27:30.560Z,10.54
2023-06-10T04:29:57.235Z,10.57
2023-06-10T04:32:23.987Z,10.63
2023-06-10T04:34:50.788Z,10.66
2023-06-10T04:37:17.558Z,10.70
2023-06-10T04:39:44.500Z,10.74
2023-06-10T04:42:11.434Z,10.77
2023-06-10T04:44:38.108Z,10.84
2023-06-10T04:47:05.112Z,10.92
2023-06-10T04:49:32.425Z,10.99
2023-06-10T04:51:59.100Z,11.03
2023-06-10T04:54:26.037Z,11.13
2023-06-10T04:56:52.855Z,11.23
2023-06-10T04:59:19.526Z,11.33
2023-06-10T05:01:46.243Z,11.42
2023-06-10T05:04:12.965Z,11.52
2023-06-10T05:06:39.773Z,11.59
2023-06-10T05:09:06.505Z,11.69
2023-06-10T05:11:33.474Z,11.78
2023-06-10T05:14:00.260Z,11.87
2023-06-10T05:16:26.993Z,11.92
2023-06-10T05:18:53.676Z,11.99
2023-06-10T05:21:20.401Z,12.08
2023-06-10T05:23:47.388Z,12.17
2023-06-10T05:26:14.164Z,12.23
2023-06-10T05:28:40.945Z,12.29
2023-06-10T05:31:07.645Z,12.33
2023-06-10T05:33:34.352Z,12.38
2023-06-10T05:36:01.276Z,12.43
2023-06-10T05:38:28.275Z,12.47
2023-06-10T05:40:54.986Z,12.56
2023-06-10T05:43:21.657Z,12.62
2023-06-10T05:45:48.459Z,12.71
2023-06-10T05:48:15.329Z,12.81
2023-06-10T05:50:43.722Z,12.89
2023-06-10T05:53:16.289Z,12.98
2023-06-10T05:55:44.619Z,13.04
2023-06-10T05:58:13.414Z,13.07
2023-06-10T06:00:41.051Z,13.16
2023-06-10T06:03:11.130Z,13.24
2023-06-10T06:05:39.299Z,13.34
2023-06-10T06:08:06.670Z,13.41
2023-06-10T06:10:33.717Z,13.37
2023-06-10T06:13:01.256Z,13.38
2023-06-10T06:15:28.118Z,13.43
2023-06-10T06:17:55.127Z,13.52
2023-06-10T06:20:22.013Z,13.61
2023-06-10T06:22:49.017Z,13.70
2023-06-10T06:25:16.303Z,13.80
2023-06-10T06:27:43.005Z,13.88
2023-06-10T06:30:10.161Z,13.96
2023-06-10T06:32:37.042Z,14.07
2023-06-10T06:35:04.139Z,14.11
2023-06-10T06:37:30.860Z,14.18
2023-06-10T06:40:02.203Z,14.21
2023-06-10T06:42:30.853Z,14.28
2023-06-10T06:44:57.551Z,14.36
2023-06-10T06:47:24.324Z,14.48
2023-06-10T06:49:51.186Z,14.52
2023-06-10T06:52:17.970Z,14.54
2023-06-10T06:54:44.731Z,14.56
2023-06-10T06:57:11.861Z,14.58
2023-06-10T06:59:38.604Z,14.68
2023-06-10T07:02:05.561Z,14.80
2023-06-10T07:04:32.581Z,14.95
2023-06-10T07:06:59.316Z,15.06
2023-06-10T07:09:25.991Z,15.17
2023-06-10T07:11:52.737Z,15.27
2023-06-10T07:14:19.478Z,15.36
2023-06-10T07:16:47.363Z,15.44
2023-06-10T07:19:14.692Z,15.52
2023-06-10T07:21:41.403Z,15.63
2023-06-10T07:24:08.202Z,15.72
2023-06-10T07:26:35.041Z,15.81
2023-06-10T07:29:01.767Z,15.94
2023-06-10T07:31:28.516Z,16.04
2023-06-10T07:33:55.189Z,16.16
2023-06-10T07:36:21.858Z,16.26
2023-06-10T07:38:48.663Z,16.32
2023-06-10T07:41:17.861Z,16.33
2023-06-10T07:43:44.587Z,16.37
2023-06-10T07:46:11.323Z,16.46
2023-06-10T07:48:38.141Z,16.57
2023-06-10T07:51:04.852Z,16.67
2023-06-10T07:53:31.580Z,16.77
2023-06-10T07:55:58.309Z,16.88
2023-06-10T07:58:25.037Z,16.97
2023-06-10T08:00:51.772Z,17.05
2023-06-10T08:03:18.598Z,17.11
2023-06-10T08:05:45.447Z,17.16
2023-06-10T08:08:12.190Z,17.22
2023-06-10T08:10:39.088Z,17.29
2023-06-10T08:13:05.827Z,17.33
2023-06-10T08:15:32.500Z,17.39
2023-06-10T08:17:59.210Z,17.46
2023-06-10T08:20:26.275Z,17.55
2023-06-10T08:22:53.018Z,17.63
2023-06-10T08:25:19.855Z,17.72
2023-06-10T08:27:46.577Z,17.79
2023-06-10T08:30:14.443Z,17.79
2023-06-10T08:32:41.295Z,17.83
2023-06-10T08:35:08.598Z,17.90
2023-06-10T08:37:35.499Z,17.96
2023-06-10T08:40:02.384Z,18.04
2023-06-10T08:42:42.586Z,18.11
2023-06-10T08:45:14.510Z,18.16
2023-06-10T08:47:45.681Z,18.23
2023-06-10T08:50:13.034Z,18.28
2023-06-10T08:52:44.524Z,18.38
2023-06-10T08:55:15.218Z,18.43
2023-06-10T08:57:46.550Z,18.53
2023-06-10T09:00:14.569Z,18.61
2023-06-10T09:02:41.390Z,18.67
2023-06-10T09:05:09.063Z,18.74
2023-06-10T09:07:37.407Z,18.83
2023-06-10T09:10:08.225Z,18.92
2023-06-10T09:12:36.694Z,18.98
2023-06-10T09:15:04.126Z,19.02
2023-06-10T09:17:31.067Z,19.10
2023-06-10T09:19:58.310Z,19.14
2023-06-10T09:22:26.630Z,19.17
2023-06-10T09:25:06.636Z,19.25
2023-06-10T09:27:33.818Z,19.35
2023-06-10T09:30:00.794Z,19.41
2023-06-10T09:32:28.393Z,19.49
2023-06-10T09:34:55.201Z,19.53
2023-06-10T09:37:23.781Z,19.63
2023-06-10T09:40:07.852Z,19.71
2023-06-10T09:42:36.631Z,19.80
2023-06-10T09:45:04.750Z,19.87
2023-06-10T09:47:31.633Z,19.98
2023-06-10T09:49:58.497Z,20.07
2023-06-10T09:52:26.765Z,20.13
2023-06-10T09:54:54.987Z,20.19
2023-06-10T09:57:23.661Z,20.24
2023-06-10T09:59:54.067Z,20.32
2023-06-10T10:02:21.297Z,20.48
2023-06-10T10:04:48.345Z,20.63
2023-06-10T10:07:15.371Z,20.74
2023-06-10T10:09:43.538Z,20.83
2023-06-10T10:12:12.276Z,20.88
2023-06-10T10:14:40.092Z,20.94
2023-06-10T10:17:15.181Z,21.09
2023-06-10T10:19:49.532Z,21.19
2023-06-10T10:22:27.836Z,21.29
2023-06-10T10:24:58.297Z,21.39
2023-06-10T10:27:29.788Z,21.47
2023-06-10T10:29:59.489Z,21.51
2023-06-10T10:32:55.149Z,21.60
2023-06-10T10:35:26.229Z,21.69
2023-06-10T10:37:55.141Z,21.83
2023-06-10T10:40:23.432Z,21.91
2023-06-10T10:42:51.193Z,21.99
2023-06-10T10:45:18.690Z,22.11
2023-06-10T10:47:54.381Z,22.23
2023-06-10T10:50:22.255Z,22.33
2023-06-10T10:52:54.857Z,22.42
2023-06-10T10:55:22.309Z,22.46
2023-06-10T10:58:01.597Z,22.50
2023-06-10T11:00:32.678Z,22.64
2023-06-10T11:03:12.156Z,22.73
2023-06-10T11:05:49.994Z,22.78
2023-06-10T11:08:36.862Z,22.81
2023-06-10T11:11:23.012Z,22.89
2023-06-10T11:14:11.095Z,23.03
2023-06-10T11:16:44.992Z,23.09
2023-06-10T11:19:36.194Z,23.20
2023-06-10T11:22:08.148Z,23.26
2023-06-10T11:24:35.175Z,23.24
2023-06-10T11:27:38.581Z,23.26
2023-06-10T11:30:05.291Z,23.25
2023-06-10T11:32:34.444Z,23.32
2023-06-10T11:35:05.262Z,23.29
2023-06-10T11:37:32.173Z,23.29
2023-06-10T11:40:00.055Z,23.27
2023-06-10T11:42:26.997Z,23.11
2023-06-10T11:44:55.507Z,23.03
2023-06-10T11:47:26.039Z,23.13
2023-06-10T11:49:58.738Z,23.35
2023-06-10T11:52:33.381Z,23.57
2023-06-10T11:55:00.285Z,23.70
2023-06-10T11:57:27.023Z,23.83
2023-06-10T11:59:53.721Z,23.92
2023-06-10T12:02:20.695Z,23.90
2023-06-10T12:04:47.596Z,23.92
2023-06-10T12:07:21.355Z,23.91
2023-06-10T12:09:48.473Z,23.95
2023-06-10T12:12:15.398Z,24.05
2023-06-10T12:14:51.263Z,24.15
2023-06-10T12:17:17.985Z,24.25
2023-06-10T12:19:44.669Z,24.39
2023-06-10T12:22:11.472Z,24.51
2023-06-10T12:25:05.859Z,24.59
2023-06-10T12:27:33.741Z,24.62
2023-06-10T12:30:04.835Z,24.65
2023-06-10T12:32:42.202Z,24.86
2023-06-10T12:35:11.059Z,25.13
2023-06-10T12:37:41.278Z,25.34
2023-06-10T12:40:12.988Z,25.27
2023-06-10T12:42:40.310Z,25.30
2023-06-10T12:45:09.427Z,25.49
2023-06-10T12:47:40.092Z,25.67
2023-06-10T12:50:07.780Z,25.78
2023-06-10T12:52:34.463Z,25.63
2023-06-10T12:55:01.956Z,25.37
2023-06-10T12:57:29.062Z,25.22
2023-06-10T12:59:58.394Z,25.21
2023-06-10T13:02:25.512Z,25.31
2023-06-10T13:04:52.866Z,25.44
2023-06-10T13:07:19.700Z,25.44
2023-06-10T13:09:50.060Z,25.43
2023-06-10T13:12:24.838Z,25.43
2023-06-10T13:14:57.510Z,25.46
2023-06-10T13:17:24.803Z,25.46
2023-06-10T13:19:51.736Z,25.41
2023-06-10T13:22:20.592Z,25.34
2023-06-10T13:24:47.857Z,25.23
2023-06-10T13:27:15.332Z,25.15
2023-06-10T13:29:42.135Z,25.25
2023-06-10T13:32:09.308Z,25.49
2023-06-10T13:34:37.274Z,25.56
2023-06-10T13:37:06.004Z,25.77
2023-06-10T13:39:32.805Z,25.95
2023-06-10T13:41:59.830Z,26.05
2023-06-10T13:44:26.686Z,26.18
2023-06-10T13:46:53.483Z,26.30
2023-06-10T13:49:20.836Z,26.36
2023-06-10T13:51:47.598Z,26.33
2023-06-10T13:54:16.862Z,26.24
2023-06-10T13:56:43.766Z,26.18
2023-06-10T13:59:10.499Z,26.26
2023-06-10T14:01:37.409Z,26.23
2023-06-10T14:04:04.350Z,25.99
2023-06-10T14:06:31.887Z,25.73
2023-06-10T14:08:58.736Z,25.75
2023-06-10T14:11:25.422Z,25.93
2023-06-10T14:13:52.258Z,26.23
2023-06-10T14:16:19.244Z,26.52
2023-06-10T14:18:45.981Z,26.63
2023-06-10T14:21:13.138Z,26.81
2023-06-10T14:23:39.962Z,27.03
2023-06-10T14:26:08.347Z,27.25
2023-06-10T14:28:35.028Z,27.29
2023-06-10T14:31:01.829Z,27.40
2023-06-10T14:33:28.539Z,27.49
2023-06-10T14:35:55.459Z,27.26
2023-06-10T14:38:22.131Z,27.05
2023-06-10T14:40:48.791Z,27.03
2023-06-10T14:43:15.498Z,27.14
2023-06-10T14:45:42.411Z,27.39
2023-06-10T14:48:09.578Z,27.45
2023-06-10T14:50:36.692Z,27.46
2023-06-10T14:53:03.980Z,27.60
2023-06-10T14:55:30.810Z,27.80
2023-06-10T14:57:58.951Z,27.84
2023-06-10T15:00:26.689Z,27.95
2023-06-10T15:02:54.784Z,28.09
2023-06-10T15:05:21.782Z,28.26
2023-06-10T15:07:49.169Z,28.40
2023-06-10T15:10:17.343Z,28.44
2023-06-10T15:12:44.168Z,28.54
2023-06-10T15:15:11.882Z,28.58
2023-06-10T15:17:38.871Z,28.14
2023-06-10T15:20:06.950Z,27.73
2023-06-10T15:22:36.223Z,27.63
2023-06-10T15:25:08.752Z,27.64
2023-06-10T15:27:48.173Z,27.86
2023-06-10T15:30:15.162Z,27.87
2023-06-10T15:32:41.951Z,27.93
2023-06-10T15:35:09.326Z,27.89
2023-06-10T15:37:36.732Z,27.81
2023-06-10T15:40:03.692Z,27.78
2023-06-10T15:42:30.457Z,27.68
2023-06-10T15:44:57.163Z,27.61
2023-06-10T15:47:23.884Z,27.56
2023-06-10T15:49:51.389Z,27.69
2023-06-10T15:52:18.169Z,27.82
2023-06-10T15:54:45.065Z,27.79
2023-06-10T15:57:11.866Z,27.83
2023-06-10T15:59:39.012Z,27.88
2023-06-10T16:02:06.129Z,28.03
2023-06-10T16:04:32.797Z,28.07
2023-06-10T16:06:59.499Z,28.10
2023-06-10T16:09:26.181Z,27.93
2023-06-10T16:11:52.919Z,27.76
2023-06-10T16:14:19.693Z,27.61
2023-06-10T16:16:46.455Z,27.70
2023-06-10T16:19:13.375Z,27.86
2023-06-10T16:21:41.394Z,28.03
2023-06-10T16:24:09.608Z,27.98
2023-06-10T16:26:36.432Z,27.82
2023-06-10T16:29:03.287Z,27.76
2023-06-10T16:31:30.091Z,27.83
2023-06-10T16:33:56.821Z,27.78
2023-06-10T16:36:23.547Z,27.85
2023-06-10T16:38:50.288Z,27.89
2023-06-10T16:41:17.133Z,27.80
2023-06-10T16:43:43.872Z,27.81
2023-06-10T16:46:10.547Z,27.86
2023-06-10T16:48:37.469Z,27.92
2023-06-10T16:51:04.620Z,27.75
2023-06-10T16:53:31.309Z,27.61
2023-06-10T16:56:00.738Z,27.67
2023-06-10T16:58:29.078Z,27.68
2023-06-10T17:01:01.141Z,27.66
2023-06-10T17:03:27.837Z,27.50
2023-06-10T17:05:54.575Z,27.48
2023-06-10T17:08:21.407Z,27.30
2023-06-10T17:10:48.116Z,27.20
2023-06-10T17:13:16.223Z,27.14
2023-06-10T17:15:42.988Z,27.10
2023-06-10T17:18:10.062Z,27.06
2023-06-10T17:20:36.797Z,27.11
2023-06-10T17:23:04.024Z,27.11
2023-06-10T17:25:30.820Z,26.95
2023-06-10T17:27:57.509Z,26.55
2023-06-10T17:30:24.272Z,26.25
2023-06-10T17:32:52.066Z,26.06
2023-06-10T17:35:18.902Z,25.98
2023-06-10T17:37:46.848Z,25.89
2023-06-10T17:40:14.006Z,25.67
2023-06-10T17:42:40.979Z,25.40
2023-06-10T17:45:09.534Z,25.11
2023-06-10T17:47:36.592Z,24.63
2023-06-10T17:50:03.426Z,24.30
2023-06-10T17:52:30.207Z,24.27
2023-06-10T17:54:58.114Z,24.13
2023-06-10T17:57:24.856Z,23.87
2023-06-10T17:59:52.049Z,23.57
2023-06-10T18:02:18.924Z,23.44
2023-06-10T18:04:45.868Z,23.39
2023-06-10T18:07:12.698Z,23.34
2023-06-10T18:09:39.386Z,23.17
2023-06-10T18:12:07.628Z,22.96
2023-06-10T18:14:34.352Z,22.72
2023-06-10T18:17:01.225Z,22.42
2023-06-10T18:19:27.922Z,22.05
2023-06-10T18:21:54.611Z,21.72
2023-06-10T18:24:22.302Z,21.50
2023-06-10T18:26:49.416Z,21.28
2023-06-10T18:29:16.278Z,21.15
2023-06-10T18:31:43.525Z,21.03
2023-06-10T18:34:10.470Z,20.92
2023-06-10T18:36:37.407Z,20.85
2023-06-10T18:39:04.274Z,20.76
2023-06-10T18:41:31.029Z,20.59
2023-06-10T18:44:00.787Z,20.46
2023-06-10T18:46:27.978Z,20.30
2023-06-10T18:48:54.819Z,20.21
2023-06-10T18:51:23.669Z,20.10
2023-06-10T18:53:50.731Z,20.10
2023-06-10T18:56:17.811Z,20.08
2023-06-10T18:58:47.687Z,19.96
2023-06-10T19:01:14.504Z,19.79
2023-06-10T19:03:41.457Z,19.53
2023-06-10T19:06:08.211Z,19.30
2023-06-10T19:08:35.018Z,19.16
2023-06-10T19:11:02.318Z,19.05
2023-06-10T19:13:30.187Z,18.98
2023-06-10T19:15:57.027Z,18.89
2023-06-10T19:18:23.859Z,18.82
2023-06-10T19:20:51.604Z,18.78
2023-06-10T19:23:18.693Z,18.74
2023-06-10T19:25:45.425Z,18.67
2023-06-10T19:28:12.180Z,18.57
2023-06-10T19:30:38.932Z,18.54
2023-06-10T19:33:07.967Z,18.51
2023-06-10T19:35:36.183Z,18.48
2023-06-10T19:38:02.948Z,18.47
2023-06-10T19:40:29.776Z,18.46
2023-06-10T19:42:58.621Z,18.45
2023-06-10T19:45:25.525Z,18.38
2023-06-10T19:47:52.454Z,18.34
2023-06-10T19:50:19.324Z,18.33
2023-06-10T19:52:46.423Z,18.31
2023-06-10T19:55:15.270Z,18.26
2023-06-10T19:57:42.153Z,18.16
2023-06-10T20:00:10.098Z,18.11
2023-06-10T20:02:36.981Z,18.07
2023-06-10T20:05:03.886Z,18.06
2023-06-10T20:07:30.626Z,18.05
2023-06-10T20:09:57.357Z,18.00
2023-06-10T20:12:24.113Z,17.95
2023-06-10T20:14:51.175Z,17.91
2023-06-10T20:17:17.837Z,17.86
2023-06-10T20:19:49.129Z,17.73
2023-06-10T20:22:17.258Z,17.61
2023-06-10T20:24:44.068Z,17.47
2023-06-10T20:27:11.210Z,17.33
2023-06-10T20:29:37.956Z,17.24
2023-06-10T20:32:05.289Z,17.17
2023-06-10T20:34:32.189Z,17.05
2023-06-10T20:36:58.921Z,16.96
2023-06-10T20:39:26.457Z,16.87
2023-06-10T20:41:53.141Z,16.84
2023-06-10T20:44:19.865Z,16.79
2023-06-10T20:46:46.655Z,16.73
2023-06-10T20:49:15.401Z,16.70
2023-06-10T20:51:42.432Z,16.66
2023-06-10T20:54:09.093Z,16.63
2023-06-10T20:56:35.831Z,16.50
2023-06-10T20:59:02.519Z,16.42
2023-06-10T21:01:29.321Z,16.33
2023-06-10T21:03:56.276Z,16.31
2023-06-10T21:06:26.343Z,16.28
2023-06-10T21:08:53.150Z,16.25
2023-06-10T21:11:19.849Z,16.20
2023-06-10T21:13:46.537Z,16.16
2023-06-10T21:16:13.393Z,16.08
2023-06-10T21:18:40.188Z,16.05
2023-06-10T21:21:07.014Z,15.97
2023-06-10T21:23:33.760Z,15.89
2023-06-10T21:26:01.916Z,15.80
2023-06-10T21:28:28.611Z,15.78
2023-06-10T21:30:55.430Z,15.79
2023-06-10T21:33:24.076Z,15.76
2023-06-10T21:35:51.347Z,15.75
2023-06-10T21:38:18.109Z,15.70
2023-06-10T21:40:44.858Z,15.64
2023-06-10T21:43:11.608Z,15.56
2023-06-10T21:45:38.263Z,15.51
2023-06-10T21:48:05.253Z,15.46
2023-06-10T21:50:32.206Z,15.43
2023-06-10T21:53:01.292Z,15.40
2023-06-10T21:55:28.477Z,15.38
2023-06-10T21:57:55.192Z,15.31
2023-06-10T22:00:22.194Z,15.25
2023-06-10T22:02:48.998Z,15.17
2023-06-10T22:05:15.846Z,15.08
2023-06-10T22:07:42.651Z,14.93
2023-06-10T22:10:09.739Z,14.82
2023-06-10T22:12:36.661Z,14.75
2023-06-10T22:15:04.866Z,14.64
2023-06-10T22:17:31.673Z,14.55
2023-06-10T22:19:58.364Z,14.53
2023-06-10T22:22:25.425Z,14.49
2023-06-10T22:24:56.290Z,14.48
2023-06-10T22:27:23.263Z,14.48
2023-06-10T22:29:50.128Z,14.42
2023-06-10T22:32:16.958Z,14.39
2023-06-10T22:34:43.682Z,14.32
2023-06-10T22:37:10.597Z,14.25
2023-06-10T22:39:37.280Z,14.18
2023-06-10T22:42:05.841Z,14.09
2023-06-10T22:44:32.942Z,14.03
2023-06-10T22:46:59.641Z,13.99
2023-06-10T22:49:26.425Z,13.95
2023-06-10T22:51:53.132Z,13.90
2023-06-10T22:54:19.816Z,13.88
2023-06-10T22:56:46.472Z,13.86
2023-06-10T22:59:13.120Z,13.81
2023-06-10T23:01:39.845Z,13.75
2023-06-10T23:04:06.702Z,13.73
2023-06-10T23:06:33.387Z,13.64
2023-06-10T23:09:00.061Z,13.57
2023-06-10T23:11:26.793Z,13.54
2023-06-10T23:13:53.548Z,13.52
2023-06-10T23:16:20.307Z,13.53
2023-06-10T23:18:47.757Z,13.50
2023-06-10T23:21:15.890Z,13.46
2023-06-10T23:23:42.669Z,13.42
2023-06-10T23:26:09.411Z,13.34
2023-06-10T23:28:36.087Z,13.24
2023-06-10T23:31:02.887Z,13.20
2023-06-10T23:33:31.972Z,13.18
2023-06-10T23:35:59.398Z,13.13
2023-06-10T23:38:26.413Z,13.08
2023-06-10T23:40:53.104Z,13.00
2023-06-10T23:43:19.778Z,12.90
2023-06-10T23:45:46.570Z,12.83
2023-06-10T23:48:13.286Z,12.75
2023-06-10T23:50:41.010Z,12.73
2023-06-10T23:53:07.836Z,12.71
2023-06-10T23:55:38.000Z,12.68
2023-06-10T23:58:04.816Z,12.64
